Time;durP1;ratioP1;P1;durP2;ratioP2;P2;SDS_P1;SDS_P2;PMS_P1;PMS_P2;Temp;Humidity;BMP_temperature;BMP_pressure;BME280_temperature;BME280_humidity;BME280_pressure;Samples;Min_cycle;Max_cycle;Signal;HPM_P1;HPM_P2
2023/12/07 00:01:16;;;;;;;16.27;7.78;;;;;;;3.47;100.00;100147.84;12213057;19;20006;-81
2023/12/07 00:05:18;;;;;;;21.77;8.27;;;;;;;3.39;100.00;100145.25;12200420;19;20054;-82
2023/12/07 00:09:19;;;;;;;14.90;7.07;;;;;;;3.36;100.00;100145.66;12186401;19;20100;-82
2023/12/07 00:13:21;;;;;;;17.65;7.57;;;;;;;3.33;100.00;100149.63;12203500;19;20015;-83
2023/12/07 00:17:23;;;;;;;17.17;7.68;;;;;;;3.27;100.00;100164.03;12208085;19;20010;-82
2023/12/07 00:21:25;;;;;;;19.17;8.48;;;;;;;3.23;100.00;100162.72;12184818;19;20440;-82
2023/12/07 00:25:26;;;;;;;15.60;7.63;;;;;;;3.17;100.00;100169.78;12207436;19;20042;-81
2023/12/07 00:29:28;;;;;;;17.88;8.27;;;;;;;3.02;100.00;100162.69;12206050;19;20014;-82
2023/12/07 00:33:30;;;;;;;18.80;7.63;;;;;;;2.85;100.00;100170.22;12195314;19;20006;-82
2023/12/07 00:37:32;;;;;;;22.85;9.07;;;;;;;2.72;100.00;100162.75;12227298;19;20477;-81
2023/12/07 00:41:34;;;;;;;18.27;8.05;;;;;;;2.56;100.00;100161.09;12224986;19;20022;-82
2023/12/07 00:45:35;;;;;;;19.60;8.73;;;;;;;2.44;100.00;100178.91;12180356;19;20015;-82
2023/12/07 00:49:39;;;;;;;18.48;8.85;;;;;;;2.31;100.00;100167.84;12224432;19;20005;-80
2023/12/07 00:53:41;;;;;;;16.73;8.07;;;;;;;2.20;100.00;100170.03;12234492;19;20011;-83
2023/12/07 00:57:43;;;;;;;9.20;6.10;;;;;;;2.10;100.00;100172.16;12185243;19;20027;-82
2023/12/07 01:01:45;;;;;;;16.73;7.97;;;;;;;2.04;100.00;100183.75;12201194;19;20038;-81
2023/12/07 01:05:46;;;;;;;17.75;7.63;;;;;;;1.96;100.00;100181.13;12200932;19;20498;-83
2023/12/07 01:09:48;;;;;;;19.15;8.55;;;;;;;1.90;100.00;100173.72;12178175;19;20006;-82
2023/12/07 01:13:50;;;;;;;23.90;9.07;;;;;;;1.83;100.00;100174.44;12202007;19;20015;-83
2023/12/07 01:17:51;;;;;;;18.75;8.23;;;;;;;1.80;100.00;100176.69;12148608;19;20006;-82
2023/12/07 01:21:55;;;;;;;20.88;8.35;;;;;;;1.74;100.00;100178.28;12183552;19;20045;-83
2023/12/07 01:25:57;;;;;;;16.02;7.82;;;;;;;1.69;100.00;100186.13;12185736;19;20026;-81
2023/12/07 01:29:59;;;;;;;21.57;7.57;;;;;;;1.64;100.00;100183.13;12175010;19;20584;-82
2023/12/07 01:34:01;;;;;;;17.23;7.20;;;;;;;1.62;100.00;100193.31;12190656;19;20010;-81
2023/12/07 01:38:02;;;;;;;15.48;7.88;;;;;;;1.60;100.00;100192.66;12186775;19;20246;-82
2023/12/07 01:42:04;;;;;;;17.73;8.27;;;;;;;1.58;100.00;100202.88;12165740;19;20014;-81
2023/12/07 01:46:06;;;;;;;21.07;7.60;;;;;;;1.55;100.00;100200.53;12185202;19;20006;-81
2023/12/07 01:50:09;;;;;;;21.10;8.35;;;;;;;1.51;100.00;100207.31;12188744;19;20011;-81
2023/12/07 01:54:11;;;;;;;16.60;7.95;;;;;;;1.48;100.00;100213.13;12165766;19;20018;-81
2023/12/07 01:58:14;;;;;;;17.73;7.43;;;;;;;1.44;100.00;100219.94;12186863;19;20019;-81
2023/12/07 02:02:18;;;;;;;14.38;7.65;;;;;;;1.39;100.00;100219.63;12183538;19;20010;-80
2023/12/07 02:06:20;;;;;;;14.18;7.07;;;;;;;1.34;100.00;100215.59;12163144;19;20795;-81
2023/12/07 02:10:22;;;;;;;22.15;8.25;;;;;;;1.32;100.00;100222.22;12183766;19;20011;-81
2023/12/07 02:14:24;;;;;;;24.43;7.70;;;;;;;1.29;100.00;100223.44;12178225;19;20014;-81
2023/12/07 02:18:38;;;;;;;15.13;7.15;;;;;;;1.25;100.00;100224.84;12168102;19;20011;-82
2023/12/07 02:22:45;;;;;;;22.02;8.07;;;;;;;1.21;100.00;100222.63;12188452;19;20006;-81
2023/12/07 02:26:49;;;;;;;14.15;7.03;;;;;;;1.17;100.00;100219.44;12188434;19;20086;-81
2023/12/07 02:30:51;;;;;;;16.42;7.60;;;;;;;1.14;100.00;100220.63;12174206;19;20010;-81
2023/12/07 02:34:53;;;;;;;17.77;6.97;;;;;;;1.15;100.00;100218.75;12195393;19;20014;-81
2023/12/07 02:38:58;;;;;;;17.70;8.05;;;;;;;1.14;100.00;100220.63;12172872;19;20714;-82
2023/12/07 02:43:01;;;;;;;17.02;7.78;;;;;;;1.13;100.00;100212.66;12194898;19;20014;-81
2023/12/07 02:47:03;;;;;;;16.75;7.57;;;;;;;1.11;100.00;100217.44;12195389;19;20010;-81
2023/12/07 02:51:05;;;;;;;17.13;7.80;;;;;;;1.11;100.00;100212.00;12175544;19;20015;-81
2023/12/07 02:55:07;;;;;;;19.97;7.37;;;;;;;1.12;100.00;100209.09;12188091;19;20016;-81
2023/12/07 02:59:09;;;;;;;14.35;7.07;;;;;;;1.11;100.00;100198.44;12205810;19;20011;-82
2023/12/07 03:03:10;;;;;;;17.67;7.28;;;;;;;1.06;100.00;100196.25;12177823;19;20940;-82
2023/12/07 03:07:13;;;;;;;15.40;7.17;;;;;;;1.03;100.00;100198.47;12202741;19;20114;-80
2023/12/07 03:11:14;;;;;;;17.27;7.43;;;;;;;1.01;100.00;100203.25;12204392;19;20372;-80
2023/12/07 03:15:16;;;;;;;18.42;7.80;;;;;;;0.99;100.00;100211.56;12181630;19;20252;-81
2023/12/07 03:19:18;;;;;;;20.67;7.13;;;;;;;0.97;100.00;100216.31;12202640;19;20023;-80
2023/12/07 03:23:20;;;;;;;18.33;7.03;;;;;;;0.94;100.00;100213.97;12199772;19;20010;-81
2023/12/07 03:27:22;;;;;;;17.58;6.75;;;;;;;0.91;100.00;100226.00;12180496;19;20002;-81
2023/12/07 03:31:23;;;;;;;18.80;6.75;;;;;;;0.91;100.00;100226.00;12203905;19;20078;-82
2023/12/07 03:35:25;;;;;;;13.20;5.30;;;;;;;0.87;100.00;100234.69;12200714;19;20010;-81
2023/12/07 03:39:29;;;;;;;13.40;6.03;;;;;;;0.82;100.00;100239.81;12179951;19;20003;-81
2023/12/07 03:43:31;;;;;;;17.67;6.55;;;;;;;0.77;100.00;100240.31;12201246;19;20268;-81
2023/12/07 03:47:33;;;;;;;16.60;6.65;;;;;;;0.75;100.00;100242.38;12202083;19;20065;-82
2023/12/07 03:51:36;;;;;;;18.65;6.32;;;;;;;0.74;100.00;100240.66;12174675;19;20326;-83
2023/12/07 03:55:38;;;;;;;18.83;7.55;;;;;;;0.73;100.00;100241.69;12200989;19;20101;-81
2023/12/07 03:59:40;;;;;;;16.70;7.57;;;;;;;0.73;100.00;100236.28;12202334;19;20014;-81
2023/12/07 04:03:42;;;;;;;15.10;5.75;;;;;;;0.74;100.00;100232.53;12181684;19;20007;-82
2023/12/07 04:07:44;;;;;;;21.20;7.85;;;;;;;0.72;100.00;100237.31;12244376;19;20013;-82
2023/12/07 04:11:46;;;;;;;22.15;8.23;;;;;;;0.70;100.00;100242.06;12223168;19;20018;-82
2023/12/07 04:15:48;;;;;;;14.43;6.35;;;;;;;0.65;100.00;100236.28;12186595;19;20023;-81
2023/12/07 04:19:50;;;;;;;20.47;8.80;;;;;;;0.65;100.00;100245.31;12209668;19;20006;-83
2023/12/07 04:23:51;;;;;;;19.40;9.97;;;;;;;0.60;100.00;100244.13;12192369;19;20066;-82
2023/12/07 04:27:53;;;;;;;20.60;8.45;;;;;;;0.58;100.00;100248.88;12257841;19;20014;-81
2023/12/07 04:31:55;;;;;;;21.93;9.47;;;;;;;0.52;100.00;100236.03;12266235;19;19990;-80
2023/12/07 04:35:57;;;;;;;22.83;9.35;;;;;;;0.51;100.00;100240.59;12220414;19;20021;-81
2023/12/07 04:39:59;;;;;;;23.53;9.57;;;;;;;0.51;100.00;100250.59;12198465;19;20481;-81
2023/12/07 04:44:00;;;;;;;27.43;10.20;;;;;;;0.52;100.00;100257.72;12196249;19;20020;-81
2023/12/07 04:48:03;;;;;;;25.73;9.90;;;;;;;0.53;100.00;100256.69;12176788;19;20018;-81
2023/12/07 04:52:06;;;;;;;24.58;11.27;;;;;;;0.52;100.00;100257.72;12200583;19;20067;-82
2023/12/07 04:56:08;;;;;;;21.80;9.35;;;;;;;0.52;100.00;100263.13;12204990;19;20003;-81
2023/12/07 05:00:11;;;;;;;24.25;10.10;;;;;;;0.51;100.00;100269.59;12184787;19;20000;-82
2023/12/07 05:04:13;;;;;;;22.75;10.23;;;;;;;0.48;100.00;100275.31;12205826;19;20007;-81
2023/12/07 05:08:14;;;;;;;15.30;7.00;;;;;;;0.49;100.00;100272.47;12203680;19;20010;-81
2023/12/07 05:12:17;;;;;;;23.67;9.90;;;;;;;0.51;100.00;100273.13;12182285;19;20079;-82
2023/12/07 05:16:19;;;;;;;26.35;10.52;;;;;;;0.55;100.00;100279.06;12202660;19;20018;-82
2023/12/07 05:20:22;;;;;;;25.50;10.32;;;;;;;0.68;100.00;100271.22;12205561;19;20017;-81
2023/12/07 05:24:24;;;;;;;26.92;12.45;;;;;;;0.77;100.00;100274.75;12180414;19;20011;-81
2023/12/07 05:28:26;;;;;;;31.63;11.07;;;;;;;0.77;100.00;100267.44;12203443;19;20003;-81
2023/12/07 05:32:28;;;;;;;27.27;11.50;;;;;;;0.73;100.00;100265.28;12202764;19;20121;-80
2023/12/07 05:36:30;;;;;;;31.37;11.47;;;;;;;0.69;100.00;100262.06;12177883;19;20580;-81
2023/12/07 05:40:33;;;;;;;30.27;11.63;;;;;;;0.63;100.00;100268.19;12198712;19;20019;-81
2023/12/07 05:44:35;;;;;;;33.42;12.68;;;;;;;0.57;100.00;100267.03;12201283;19;20627;-81
2023/12/07 05:48:37;;;;;;;37.10;13.23;;;;;;;0.55;100.00;100260.91;12177593;19;20011;-83
2023/12/07 05:52:39;;;;;;;;;;;;;;;0.56;100.00;100261.75;12198986;19;20042;-82
2023/12/07 05:56:42;;;;;;;32.70;12.07;;;;;;;0.55;100.00;100265.50;12201406;19;19907;-82
2023/12/07 06:00:46;;;;;;;36.08;13.35;;;;;;;0.61;100.00;100267.50;12176774;19;20025;-81
2023/12/07 06:04:49;;;;;;;37.25;13.38;;;;;;;0.68;100.00;100277.50;12201968;19;20020;-82
2023/12/07 06:08:51;;;;;;;;;;;;;;;0.72;100.00;100269.00;12190086;19;19999;-81
2023/12/07 06:12:55;;;;;;;33.80;12.50;;;;;;;0.73;100.00;100276.13;12209240;19;19914;-82
2023/12/07 06:16:59;;;;;;;38.90;13.32;;;;;;;0.73;100.00;100278.84;12210932;19;20046;-81
2023/12/07 06:21:00;;;;;;;32.05;13.50;;;;;;;0.71;100.00;100270.00;12190359;19;20007;-82
2023/12/07 06:25:05;;;;;;;40.28;13.75;;;;;;;0.69;100.00;100264.78;12203787;19;20027;-81
2023/12/07 06:29:07;;;;;;;36.33;13.57;;;;;;;0.64;100.00;100268.00;12209707;19;20353;-82
2023/12/07 06:33:09;;;;;;;40.83;15.20;;;;;;;0.63;100.00;100274.47;12185487;19;20026;-81
2023/12/07 06:37:11;;;;;;;24.10;10.10;;;;;;;0.62;100.00;100270.03;12206513;19;20047;-81
2023/12/07 06:41:14;;;;;;;36.08;12.80;;;;;;;0.63;100.00;100282.59;12212355;19;20258;-81
2023/12/07 06:45:16;;;;;;;38.08;15.43;;;;;;;0.67;100.00;100278.50;12183744;19;20006;-81
2023/12/07 06:49:19;;;;;;;34.53;14.17;;;;;;;0.75;100.00;100290.38;12205592;19;20010;-81
2023/12/07 06:53:21;;;;;;;42.15;17.35;;;;;;;0.80;100.00;100299.66;12207696;19;20007;-82
2023/12/07 06:57:22;;;;;;;42.73;17.93;;;;;;;0.89;100.00;100298.63;12188294;19;20345;-81
2023/12/07 07:01:25;;;;;;;49.88;17.02;;;;;;;0.97;100.00;100299.59;12207049;19;20025;-81
2023/12/07 07:05:27;;;;;;;35.47;14.57;;;;;;;0.97;100.00;100308.59;12204568;19;20464;-80
2023/12/07 07:09:28;;;;;;;39.37;13.77;;;;;;;0.93;100.00;100311.84;12186002;19;20494;-81
2023/12/07 07:13:30;;;;;;;45.25;14.68;;;;;;;0.87;100.00;100316.09;12202769;19;20773;-79
2023/12/07 07:17:32;;;;;;;34.05;12.80;;;;;;;0.77;100.00;100321.69;12206926;19;20028;-80
2023/12/07 07:21:34;;;;;;;32.20;13.20;;;;;;;0.70;100.00;100326.13;12194804;19;20104;-80
2023/12/07 07:25:36;;;;;;;29.00;12.33;;;;;;;0.73;100.00;100325.78;12211741;19;20099;-81
2023/12/07 07:29:38;;;;;;;38.25;13.23;;;;;;;0.77;100.00;100335.25;12212855;19;20007;-80
2023/12/07 07:33:40;;;;;;;41.10;14.07;;;;;;;0.88;100.00;100340.31;12208590;19;20014;-80
2023/12/07 07:37:43;;;;;;;35.23;12.77;;;;;;;1.06;100.00;100336.53;12229122;19;20006;-82
2023/12/07 07:41:45;;;;;;;36.55;13.60;;;;;;;1.27;100.00;100328.63;12215245;19;20018;-80
2023/12/07 07:45:46;;;;;;;40.55;13.07;;;;;;;1.46;100.00;100337.38;12174379;19;20034;-80
2023/12/07 07:49:49;;;;;;;42.03;13.13;;;;;;;1.65;100.00;100347.81;12198746;19;20725;-80
2023/12/07 07:53:51;;;;;;;40.22;13.50;;;;;;;1.80;100.00;100334.28;12180640;19;20006;-80
2023/12/07 07:57:53;;;;;;;39.50;14.60;;;;;;;1.97;100.00;100332.31;12204865;19;20027;-80
2023/12/07 08:01:55;;;;;;;;;;;;;;;2.04;100.00;100320.53;12201866;19;20019;-80
2023/12/07 08:05:57;;;;;;;40.58;13.93;;;;;;;2.15;100.00;100312.97;12178087;19;19918;-80
2023/12/07 08:09:59;;;;;;;31.52;14.80;;;;;;;2.28;100.00;100311.31;12202051;19;20003;-80
2023/12/07 08:14:01;;;;;;;43.13;14.50;;;;;;;2.45;100.00;100298.41;12202319;19;20369;-80
2023/12/07 08:18:03;;;;;;;34.20;14.48;;;;;;;2.58;100.00;100278.72;12179612;19;20477;-79
2023/12/07 08:22:05;;;;;;;34.80;13.50;;;;;;;2.55;100.00;100268.22;12198623;19;20030;-80
2023/12/07 08:26:06;;;;;;;31.90;12.80;;;;;;;2.44;100.00;100265.94;12197139;19;20286;-79
2023/12/07 08:30:09;;;;;;;27.67;13.52;;;;;;;2.31;100.00;100263.03;12180518;19;20042;-79
2023/12/07 08:34:11;;;;;;;;;;;;;;;2.24;100.00;100260.22;12200405;19;20034;-81
2023/12/07 08:38:13;;;;;;;28.05;12.10;;;;;;;2.23;100.00;100267.53;12202805;19;20161;-80
2023/12/07 08:42:15;;;;;;;35.83;14.10;;;;;;;2.23;100.00;100266.66;12176945;19;20010;-81
2023/12/07 08:46:17;;;;;;;33.55;13.43;;;;;;;2.26;100.00;100272.59;12199470;19;20006;-81
2023/12/07 08:50:18;;;;;;;34.95;14.38;;;;;;;2.25;100.00;100276.31;12207045;19;20339;-82
2023/12/07 08:54:21;;;;;;;29.42;13.18;;;;;;;2.29;100.00;100274.09;12177489;19;20023;-81
2023/12/07 08:58:23;;;;;;;22.70;9.67;;;;;;;2.31;100.00;100268.47;12187351;19;20007;-80
2023/12/07 09:02:25;;;;;;;30.27;14.60;;;;;;;2.36;100.00;100269.59;12208062;19;20252;-81
2023/12/07 09:06:42;;;;;;;32.00;12.98;;;;;;;2.39;100.00;100274.66;12187222;19;20025;-81
2023/12/07 09:10:44;;;;;;;32.15;13.32;;;;;;;2.44;100.00;100274.09;12205932;19;20002;-81
2023/12/07 09:14:46;;;;;;;36.20;14.75;;;;;;;2.47;100.00;100280.03;12210547;19;20034;-80
2023/12/07 09:18:48;;;;;;;32.00;13.57;;;;;;;2.55;100.00;100270.09;12190364;19;20013;-80
2023/12/07 09:22:49;;;;;;;37.93;14.53;;;;;;;2.63;100.00;100265.41;12194129;19;20006;-81
2023/12/07 09:26:52;;;;;;;34.23;14.50;;;;;;;2.74;100.00;100270.38;12210360;19;20003;-80
2023/12/07 09:30:54;;;;;;;34.88;15.55;;;;;;;2.88;100.00;100267.84;12190038;19;20020;-81
2023/12/07 09:34:56;;;;;;;32.63;12.68;;;;;;;3.03;100.00;100262.38;12211872;19;20014;-80
2023/12/07 09:38:58;;;;;;;37.33;14.75;;;;;;;3.11;100.00;100263.13;12210235;19;20007;-81
2023/12/07 09:43:00;;;;;;;43.08;17.38;;;;;;;3.20;100.00;100270.16;12190346;19;20732;-80
2023/12/07 09:47:01;;;;;;;35.78;16.88;;;;;;;3.32;100.00;100269.66;12208646;19;20011;-81
2023/12/07 09:51:06;;;;;;;44.72;17.40;;;;;;;3.60;100.00;100281.53;12206426;19;20045;-81
2023/12/07 09:55:09;;;;;;;;;;;;;;;3.85;100.00;100301.06;12187594;19;20017;-82
2023/12/07 09:59:11;;;;;;;39.45;16.30;;;;;;;3.97;100.00;100300.56;12210865;19;19903;-83
2023/12/07 10:03:23;;;;;;;46.25;17.10;;;;;;;3.89;100.00;100299.63;12180991;19;20015;-82
2023/12/07 10:07:37;;;;;;;46.53;17.20;;;;;;;3.88;100.00;100287.03;12204300;19;20014;-83
2023/12/07 10:11:40;;;;;;;38.40;15.68;;;;;;;3.94;100.00;100282.69;12206209;19;20019;-82
2023/12/07 10:15:42;;;;;;;39.35;15.80;;;;;;;4.08;100.00;100268.16;12182920;19;20011;-83
2023/12/07 10:19:44;;;;;;;43.80;15.70;;;;;;;4.22;100.00;100265.50;12208580;19;20074;-83
2023/12/07 10:23:47;;;;;;;37.43;15.10;;;;;;;4.25;100.00;100259.66;12200094;19;20039;-83
2023/12/07 10:27:50;;;;;;;36.70;16.67;;;;;;;4.28;100.00;100262.00;12180409;19;20018;-83
2023/12/07 10:32:00;;;;;;;34.88;15.38;;;;;;;4.24;100.00;100252.53;12204388;19;20013;-83
2023/12/07 10:36:04;;;;;;;36.92;15.70;;;;;;;4.20;100.00;100243.06;12200398;19;20013;-82
2023/12/07 10:40:07;;;;;;;33.88;14.55;;;;;;;4.23;100.00;100239.94;12210589;19;20030;-83
2023/12/07 10:44:13;;;;;;;35.03;15.27;;;;;;;4.05;100.00;100240.44;12214218;19;20465;-84
2023/12/07 10:48:16;;;;;;;42.13;16.80;;;;;;;3.98;100.00;100248.53;12183019;19;20024;-84
2023/12/07 10:52:22;;;;;;;41.00;16.77;;;;;;;3.89;100.00;100244.25;12218574;19;20010;-83
2023/12/07 10:56:45;;;;;;;37.42;16.50;;;;;;;3.67;100.00;100246.16;12212488;19;20557;-83
2023/12/07 11:00:48;;;;;;;47.88;16.17;;;;;;;3.65;100.00;100240.88;12193684;19;20011;-83
2023/12/07 11:04:51;;;;;;;45.60;16.52;;;;;;;3.59;100.00;100232.66;12222183;19;20006;-83
2023/12/07 11:09:03;;;;;;;;;;;;;;;3.60;100.00;100220.72;12241130;19;20006;-81
2023/12/07 11:13:16;;;;;;;59.67;14.82;;;;;;;3.70;100.00;100218.50;12251661;19;21234;-82
2023/12/07 11:17:22;;;;;;;41.33;13.77;;;;;;;3.59;100.00;100214.41;12262279;19;20011;-81
2023/12/07 11:21:24;;;;;;;41.05;15.90;;;;;;;3.53;100.00;100190.66;12206651;19;20735;-82
2023/12/07 11:25:26;;;;;;;40.93;14.50;;;;;;;3.52;100.00;100186.25;12200766;19;20509;-82
2023/12/07 11:29:29;;;;;;;47.95;13.70;;;;;;;3.45;100.00;100188.09;12205489;19;20021;-82
2023/12/07 11:33:31;;;;;;;;;;;;;;;3.38;100.00;100198.91;12186041;19;20007;-82
2023/12/07 11:38:08;;;;;;;50.37;14.90;;;;;;;3.26;100.00;100196.88;12207284;19;20601;-83
2023/12/07 11:42:11;;;;;;;51.42;14.75;;;;;;;3.16;100.00;100181.72;12181819;19;20007;-83
2023/12/07 11:46:14;;;;;;;51.60;14.18;;;;;;;3.11;100.00;100175.97;12204145;19;20010;-81
2023/12/07 11:50:16;;;;;;;46.83;15.25;;;;;;;3.14;100.00;100175.59;12216360;19;20021;-80
2023/12/07 11:54:18;;;;;;;63.97;14.63;;;;;;;3.20;100.00;100157.66;12193658;19;20138;-83
2023/12/07 11:58:20;;;;;;;45.45;15.60;;;;;;;3.22;100.00;100136.53;12214503;19;20287;-84
2023/12/07 12:02:22;;;;;;;61.95;15.30;;;;;;;3.23;100.00;100130.03;12220991;19;20003;-83
2023/12/07 12:06:25;;;;;;;44.85;13.05;;;;;;;3.23;100.00;100123.75;12187882;19;20007;-82
2023/12/07 12:10:27;;;;;;;65.57;13.82;;;;;;;3.27;100.00;100114.13;12212772;19;20010;-82
2023/12/07 12:14:29;;;;;;;37.25;14.35;;;;;;;3.29;100.00;100103.91;12209737;19;20007;-82
2023/12/07 12:18:32;;;;;;;58.93;16.00;;;;;;;3.42;100.00;100096.69;12194626;19;20358;-81
2023/12/07 12:22:36;;;;;;;35.65;13.48;;;;;;;3.58;100.00;100098.28;12209776;19;20476;-82
2023/12/07 12:26:42;;;;;;;48.88;15.05;;;;;;;3.67;100.00;100095.41;12232356;19;20058;-82
2023/12/07 12:30:44;;;;;;;37.60;14.82;;;;;;;3.59;100.00;100085.50;12177958;19;20010;-83
2023/12/07 12:34:50;;;;;;;53.13;15.57;;;;;;;3.61;100.00;100070.63;12200232;19;20015;-82
2023/12/07 12:38:52;;;;;;;53.28;15.80;;;;;;;3.60;100.00;100082.59;12206475;19;20042;-83
2023/12/07 12:42:54;;;;;;;45.95;16.02;;;;;;;3.72;100.00;100073.84;12182675;19;20021;-82
2023/12/07 12:46:58;;;;;;;69.88;23.80;;;;;;;3.82;100.00;100069.75;12208330;19;20006;-82
2023/12/07 12:51:13;;;;;;;56.63;21.13;;;;;;;4.01;100.00;100079.06;12203967;19;20010;-82
2023/12/07 12:55:17;;;;;;;43.25;17.20;;;;;;;4.10;100.00;100077.91;12182428;19;20018;-83
2023/12/07 12:59:20;;;;;;;48.97;18.27;;;;;;;4.20;100.00;100069.34;12196914;19;20033;-83
2023/12/07 13:03:22;;;;;;;80.32;26.00;;;;;;;4.11;100.00;100063.22;12186883;19;20006;-82
2023/12/07 13:07:24;;;;;;;66.60;23.85;;;;;;;4.18;100.00;100063.22;12201093;19;20038;-82
2023/12/07 13:11:26;;;;;;;52.25;19.88;;;;;;;4.37;100.00;100058.91;12194015;19;20036;-82
2023/12/07 13:15:29;;;;;;;56.35;18.73;;;;;;;4.33;100.00;100053.03;12175710;19;20041;-81
2023/12/07 13:19:31;;;;;;;;;;;;;;;4.36;100.00;100049.03;12199509;19;20037;-81
2023/12/07 13:23:34;;;;;;;142.23;43.67;;;;;;;4.26;100.00;100037.69;12195540;19;20699;-81
2023/12/07 13:27:36;;;;;;;51.50;20.17;;;;;;;4.30;100.00;100028.88;12181601;19;20003;-81
2023/12/07 13:31:38;;;;;;;56.55;20.40;;;;;;;4.33;100.00;100027.63;12196724;19;20019;-82
2023/12/07 13:35:40;;;;;;;56.67;19.98;;;;;;;4.40;100.00;100024.91;12196669;19;20021;-80
2023/12/07 13:39:42;;;;;;;48.03;18.07;;;;;;;4.30;100.00;100022.59;12176228;19;20018;-83
2023/12/07 13:43:44;;;;;;;49.15;17.83;;;;;;;4.18;100.00;100026.94;12193013;19;20003;-82
2023/12/07 13:47:47;;;;;;;44.40;17.85;;;;;;;4.08;100.00;100027.31;12194808;19;20006;-83
2023/12/07 13:51:49;;;;;;;48.67;17.13;;;;;;;4.03;100.00;100032.53;12171516;19;20007;-82
2023/12/07 13:55:51;;;;;;;50.25;19.77;;;;;;;3.97;100.00;100033.34;12190138;19;20013;-82
2023/12/07 13:59:54;;;;;;;45.83;18.17;;;;;;;3.93;100.00;100027.44;12220995;19;20054;-82
2023/12/07 14:03:57;;;;;;;48.03;17.52;;;;;;;3.99;100.00;100015.75;12199436;19;19999;-84
2023/12/07 14:07:59;;;;;;;56.40;19.25;;;;;;;3.92;100.00;100012.13;12198196;19;20006;-84
2023/12/07 14:12:01;;;;;;;49.33;17.60;;;;;;;3.93;100.00;100013.81;12194704;19;20006;-83
2023/12/07 14:16:04;;;;;;;50.20;18.13;;;;;;;3.89;100.00;100005.19;12169552;19;20024;-83
2023/12/07 14:20:20;;;;;;;51.33;21.65;;;;;;;3.74;100.00;99985.38;12195420;19;20670;-84
2023/12/07 14:24:42;;;;;;;55.30;20.30;;;;;;;3.62;100.00;99984.28;12175812;19;20076;-84
2023/12/07 14:28:44;;;;;;;48.58;17.95;;;;;;;3.43;100.00;99985.84;12203566;19;20021;-83
2023/12/07 14:32:51;;;;;;;57.80;18.35;;;;;;;3.37;100.00;99970.28;12206055;19;20010;-83
2023/12/07 14:36:54;;;;;;;45.90;16.08;;;;;;;3.37;100.00;99964.84;12182934;19;20010;-80
2023/12/07 14:40:57;;;;;;;40.93;16.40;;;;;;;3.29;100.00;99948.66;12206735;19;20007;-83
2023/12/07 14:44:59;;;;;;;37.47;15.25;;;;;;;3.15;100.00;99939.53;12205927;19;19999;-83
2023/12/07 14:49:02;;;;;;;43.55;16.52;;;;;;;2.99;100.00;99932.53;12187242;19;20029;-84
2023/12/07 14:53:05;;;;;;;41.45;15.73;;;;;;;2.80;100.00;99938.66;12204272;19;20025;-83
2023/12/07 14:57:09;;;;;;;37.30;14.07;;;;;;;2.65;100.00;99934.13;12207341;19;20002;-84
2023/12/07 15:01:11;;;;;;;33.17;12.77;;;;;;;2.54;100.00;99940.09;12191455;19;20006;-85
2023/12/07 15:05:13;;;;;;;33.95;12.70;;;;;;;2.42;100.00;99926.16;12209676;19;20035;-80
2023/12/07 15:09:15;;;;;;;29.02;10.18;;;;;;;2.28;100.00;99910.75;12209847;19;20006;-80
2023/12/07 15:13:17;;;;;;;21.07;8.90;;;;;;;2.14;100.00;99915.22;12182929;19;20014;-80
2023/12/07 15:17:19;;;;;;;24.60;9.40;;;;;;;2.03;100.00;99915.72;12207358;19;20032;-80
2023/12/07 15:21:23;;;;;;;19.60;7.40;;;;;;;1.92;100.00;99914.31;12208634;19;20010;-80
2023/12/07 15:25:25;;;;;;;17.50;6.85;;;;;;;1.80;100.00;99900.38;12214543;19;20016;-84
2023/12/07 15:29:27;;;;;;;16.67;7.22;;;;;;;1.69;100.00;99902.75;12217222;19;20023;-83
2023/12/07 15:33:30;;;;;;;14.67;7.07;;;;;;;1.61;100.00;99895.56;12190983;19;20010;-84
2023/12/07 15:37:32;;;;;;;;;;;;;;;1.52;100.00;99889.41;12211719;19;20102;-85
2023/12/07 15:41:34;;;;;;;11.80;5.72;;;;;;;1.41;100.00;99886.31;12195485;19;19914;-85
2023/12/07 15:45:35;;;;;;;12.63;6.03;;;;;;;1.38;100.00;99873.97;12184630;19;20003;-83
2023/12/07 15:49:37;;;;;;;17.30;7.63;;;;;;;1.32;100.00;99870.13;12211316;19;20011;-83
2023/12/07 15:53:40;;;;;;;15.80;6.83;;;;;;;1.28;100.00;99865.25;12209283;19;20015;-83
2023/12/07 15:57:41;;;;;;;14.63;6.78;;;;;;;1.27;100.00;99864.41;12180033;19;20030;-83
2023/12/07 16:01:44;;;;;;;14.00;6.40;;;;;;;1.20;100.00;99851.78;12210831;19;20077;-84
2023/12/07 16:05:45;;;;;;;21.13;8.82;;;;;;;1.14;100.00;99856.09;12200162;19;20260;-84
2023/12/07 16:09:48;;;;;;;16.42;7.90;;;;;;;1.11;100.00;99854.59;12182112;19;20365;-83
2023/12/07 16:13:50;;;;;;;20.70;8.33;;;;;;;1.05;100.00;99851.78;12201902;19;20006;-85
2023/12/07 16:17:52;;;;;;;14.47;7.23;;;;;;;1.04;100.00;99855.53;12200572;19;20139;-83
2023/12/07 16:21:54;;;;;;;23.95;9.60;;;;;;;0.96;100.00;99836.63;12179573;19;20007;-84
2023/12/07 16:25:55;;;;;;;38.50;12.65;;;;;;;0.91;100.00;99840.75;12200497;19;20637;-83
2023/12/07 16:29:57;;;;;;;26.27;11.60;;;;;;;0.86;100.00;99837.75;12195084;19;20877;-84
2023/12/07 16:33:59;;;;;;;22.40;9.82;;;;;;;0.84;100.00;99838.97;12180403;19;20046;-83
2023/12/07 16:38:05;;;;;;;19.33;8.50;;;;;;;0.80;100.00;99841.19;12201169;19;20029;-85
2023/12/07 16:42:07;;;;;;;16.95;8.48;;;;;;;0.85;100.00;99843.38;12203344;19;20014;-83
2023/12/07 16:46:09;;;;;;;20.83;9.55;;;;;;;0.89;100.00;99839.22;12180182;19;20017;-83
2023/12/07 16:50:11;;;;;;;23.95;9.57;;;;;;;0.94;100.00;99825.13;12199723;19;20006;-84
2023/12/07 16:54:13;;;;;;;20.05;8.63;;;;;;;0.91;100.00;99821.75;12197176;19;20007;-84
2023/12/07 16:58:15;;;;;;;20.33;9.80;;;;;;;0.96;100.00;99815.78;12174188;19;20033;-83
2023/12/07 17:02:27;;;;;;;22.30;9.07;;;;;;;1.00;100.00;99802.66;12198516;19;20259;-84
2023/12/07 17:06:29;;;;;;;21.67;9.60;;;;;;;1.02;100.00;99797.91;12174738;19;20010;-83
2023/12/07 17:10:31;;;;;;;31.10;11.55;;;;;;;1.04;100.00;99801.25;12201719;19;20078;-83
2023/12/07 17:14:33;;;;;;;22.10;8.88;;;;;;;1.02;100.00;99798.75;12206431;19;20735;-83
2023/12/07 17:18:35;;;;;;;25.43;9.90;;;;;;;1.00;100.00;99786.38;12176240;19;20015;-82
2023/12/07 17:22:37;;;;;;;26.33;9.93;;;;;;;0.98;100.00;99775.72;12213089;19;20006;-81
2023/12/07 17:26:42;;;;;;;22.08;10.48;;;;;;;0.96;100.00;99766.94;12206258;19;20009;-84
2023/12/07 17:30:54;;;;;;;26.10;10.65;;;;;;;0.91;100.00;99774.78;12182137;19;20003;-82
2023/12/07 17:34:56;;;;;;;20.75;8.75;;;;;;;0.93;100.00;99752.91;12200545;19;20014;-83
2023/12/07 17:38:58;;;;;;;24.73;9.80;;;;;;;0.94;100.00;99777.13;12200277;19;20019;-84
2023/12/07 17:43:00;;;;;;;22.92;9.95;;;;;;;0.93;100.00;99758.34;12175671;19;20014;-83
2023/12/07 17:47:02;;;;;;;24.40;11.40;;;;;;;1.04;100.00;99749.69;12195969;19;20049;-83
2023/12/07 17:51:04;;;;;;;25.98;11.18;;;;;;;1.07;100.00;99746.59;12198390;19;20010;-86
2023/12/07 17:55:07;;;;;;;21.33;8.65;;;;;;;1.12;100.00;99749.59;12178356;19;20010;-84
2023/12/07 17:59:12;;;;;;;28.98;11.05;;;;;;;1.18;100.00;99743.41;12204560;19;20118;-85
2023/12/07 18:03:15;;;;;;;30.95;10.65;;;;;;;1.17;100.00;99739.00;12203457;19;20373;-87
2023/12/07 18:07:17;;;;;;;25.42;11.13;;;;;;;1.21;100.00;99753.03;12189888;19;20011;-84
2023/12/07 18:11:22;;;;;;;29.88;9.40;;;;;;;1.31;100.00;99754.44;12214146;19;20362;-85
2023/12/07 18:15:24;;;;;;;31.08;10.60;;;;;;;1.38;100.00;99759.09;12193070;19;20106;-86
2023/12/07 18:19:26;;;;;;;27.55;11.35;;;;;;;1.43;100.00;99765.63;12209331;19;20010;-84
2023/12/07 18:23:28;;;;;;;28.80;10.83;;;;;;;1.43;100.00;99754.78;12219249;19;20457;-86